Time;durP1;ratioP1;P1;durP2;ratioP2;P2;SDS_P1;SDS_P2;PMS_P1;PMS_P2;Temp;Humidity;BMP_temperature;BMP_pressure;BME280_temperature;BME280_humidity;BME280_pressure;Samples;Min_cycle;Max_cycle;Signal;HPM_P1;HPM_P2
2021/09/26 00:01:51;;;;;;;;;;;;;;;;;;4988587;28;19913;-87
2021/09/26 00:04:17;;;;;;;;;;;;;;;;;;5003934;28;20020;-86
2021/09/26 00:06:43;;;;;;;;;;;;;;;;;;4983358;28;20368;-86
2021/09/26 00:09:11;;;;;;;;;;;;;;;;;;4979369;28;19918;-87
2021/09/26 00:11:36;;;;;;;;;;;;;;;;;;4979733;28;19925;-86
2021/09/26 00:14:02;;;;;;;;;;;;;;;;;;4978128;28;19918;-86
2021/09/26 00:16:29;;;;;;;;;;;;;;;;;;4979105;28;19922;-87
2021/09/26 00:18:54;;;;;;;;;;;;;;;;;;4977764;28;19922;-87
2021/09/26 00:21:20;;;;;;;;;;;;;;;;;;4977483;28;19937;-86
2021/09/26 00:23:45;;;;;;;;;;;;;;;;;;4978624;28;20393;-86
2021/09/26 00:26:12;;;;;;;;;;;;;;;;;;4978554;28;19965;-85
2021/09/26 00:28:39;;;;;;;;;;;;;;;;;;4977192;28;19930;-84
2021/09/26 00:31:05;;;;;;;;;;;;;;;;;;4978310;28;19925;-86
2021/09/26 00:33:31;;;;;;;;;;;;;;;;;;4989540;28;20437;-87
2021/09/26 00:35:57;;;;;;;;;;;;;;;;;;4997741;28;19917;-86
2021/09/26 00:38:23;;;;;;;;;;;;;;;;;;4997837;28;19965;-86
2021/09/26 00:40:50;;;;;;;;;;;;;;;;;;4997698;28;19921;-86
2021/09/26 00:43:17;;;;;;;;;;;;;;;;;;4997615;28;19914;-86
2021/09/26 00:45:43;;;;;;;;;;;;;;;;;;4997570;28;19972;-86
2021/09/26 00:48:09;;;;;;;;;;;;;;;;;;4980196;28;19918;-86
2021/09/26 00:50:35;;;;;;;;;;;;;;;;;;4997456;28;20012;-86
2021/09/26 00:53:02;;;;;;;;;;;;;;;;;;4997571;28;19925;-87
2021/09/26 00:55:31;;;;;;;;;;;;;;;;;;4996239;28;19918;-86
2021/09/26 00:57:57;;;;;;;;;;;;;;;;;;4996140;28;19971;-86
2021/09/26 01:00:22;;;;;;;;;;;;;;;;;;4979967;28;19918;-86
2021/09/26 01:02:48;;;;;;;;;;;;;;;;;;4997370;28;20408;-87
2021/09/26 01:05:15;;;;;;;;;;;;;;;;;;4997667;28;20500;-86
2021/09/26 01:07:49;;;;;;;;;;;;;;;;;;4997245;28;19961;-86
2021/09/26 01:10:26;;;;;;;;;;;;;;;;;;4979933;28;19924;-86
2021/09/26 01:12:59;;;;;;;;;;;;;;;;;;4979641;28;19917;-86
2021/09/26 01:15:43;;;;;;;;;;;;;;;;;;4997151;28;20016;-86
2021/09/26 01:18:27;;;;;;;;;;;;;;;;;;4997033;28;20005;-86
2021/09/26 01:20:57;;;;;;;;;;;;;;;;;;4979570;28;20338;-85
2021/09/26 01:23:23;;;;;;;;;;;;;;;;;;4979736;28;19918;-86
2021/09/26 01:26:07;;;;;;;;;;;;;;;;;;4997047;28;19976;-86
2021/09/26 01:28:32;;;;;;;;;;;;;;;;;;4996862;28;20382;-86
2021/09/26 01:31:09;;;;;;;;;;;;;;;;;;4996655;28;19929;-86
2021/09/26 01:33:39;;;;;;;;;;;;;;;;;;4996462;28;19929;-86
2021/09/26 01:36:11;;;;;;;;;;;;;;;;;;4995714;28;19984;-87
2021/09/26 01:39:06;;;;;;;;;;;;;;;;;;4997138;28;19922;-86
2021/09/26 01:41:48;;;;;;;;;;;;;;;;;;4979563;28;19917;-86
2021/09/26 01:44:32;;;;;;;;;;;;;;;;;;4979677;28;19917;-85
2021/09/26 01:46:59;;;;;;;;;;;;;;;;;;4996507;28;19917;-86
2021/09/26 01:49:31;;;;;;;;;;;;;;;;;;4979003;28;19918;-86
2021/09/26 01:51:57;;;;;;;;;;;;;;;;;;4996375;28;19917;-86
2021/09/26 01:54:24;;;;;;;;;;;;;;;;;;4995112;28;19918;-86
2021/09/26 01:56:49;;;;;;;;;;;;;;;;;;4996711;28;19918;-86
2021/09/26 01:59:19;;;;;;;;;;;;;;;;;;4996268;28;19924;-86
2021/09/26 02:01:46;;;;;;;;;;;;;;;;;;4996664;28;19953;-86
2021/09/26 02:04:12;;;;;;;;;;;;;;;;;;4996265;28;19961;-86
2021/09/26 02:06:39;;;;;;;;;;;;;;;;;;4996204;28;20282;-86
2021/09/26 02:09:05;;;;;;;;;;;;;;;;;;4978921;28;20334;-86
2021/09/26 02:11:31;;;;;;;;;;;;;;;;;;4996003;28;19918;-86
2021/09/26 02:13:56;;;;;;;;;;;;;;;;;;4995700;28;19918;-86
2021/09/26 02:16:24;;;;;;;;;;;;;;;;;;4996385;28;20390;-87
2021/09/26 02:18:52;;;;;;;;;;;;;;;;;;4978429;28;20302;-86
2021/09/26 02:21:19;;;;;;;;;;;;;;;;;;4995838;28;19921;-86
2021/09/26 02:23:44;;;;;;;;;;;;;;;;;;4995932;28;20290;-86
2021/09/26 02:26:11;;;;;;;;;;;;;;;;;;4995859;28;19918;-85
2021/09/26 02:28:36;;;;;;;;;;;;;;;;;;4995893;28;19918;-87
2021/09/26 02:31:06;;;;;;;;;;;;;;;;;;4995806;28;19924;-87
2021/09/26 02:33:34;;;;;;;;;;;;;;;;;;4995445;28;19921;-86
2021/09/26 02:35:59;;;;;;;;;;;;;;;;;;4978148;28;19925;-86
2021/09/26 02:38:25;;;;;;;;;;;;;;;;;;4978355;28;19922;-86
2021/09/26 02:40:57;;;;;;;;;;;;;;;;;;4978356;28;19925;-86
2021/09/26 02:43:26;;;;;;;;;;;;;;;;;;4995622;28;19918;-86
2021/09/26 02:46:05;;;;;;;;;;;;;;;;;;4978066;28;20008;-86
2021/09/26 02:48:31;;;;;;;;;;;;;;;;;;4995868;28;19918;-85
2021/09/26 02:51:00;;;;;;;;;;;;;;;;;;4978161;28;19917;-86
2021/09/26 02:53:27;;;;;;;;;;;;;;;;;;4995278;28;19917;-85
2021/09/26 02:55:54;;;;;;;;;;;;;;;;;;4977884;28;19917;-86
2021/09/26 02:58:23;;;;;;;;;;;;;;;;;;4995172;28;19921;-85
2021/09/26 03:00:50;;;;;;;;;;;;;;;;;;4995191;28;19929;-85
2021/09/26 03:03:22;;;;;;;;;;;;;;;;;;4977960;28;19917;-85
2021/09/26 03:05:48;;;;;;;;;;;;;;;;;;4977904;28;19925;-86
2021/09/26 03:08:14;;;;;;;;;;;;;;;;;;4977643;28;20012;-86
2021/09/26 03:10:40;;;;;;;;;;;;;;;;;;4977466;28;19918;-86
2021/09/26 03:13:07;;;;;;;;;;;;;;;;;;4995175;28;19981;-86
2021/09/26 03:15:32;;;;;;;;;;;;;;;;;;4995029;28;19940;-86
2021/09/26 03:17:58;;;;;;;;;;;;;;;;;;4994969;28;19926;-85
2021/09/26 03:20:24;;;;;;;;;;;;;;;;;;4994972;28;20355;-86
2021/09/26 03:22:51;;;;;;;;;;;;;;;;;;4995109;28;19918;-86
2021/09/26 03:25:17;;;;;;;;;;;;;;;;;;4976836;28;19918;-86
2021/09/26 03:27:42;;;;;;;;;;;;;;;;;;4994772;28;19918;-86
2021/09/26 03:30:08;;;;;;;;;;;;;;;;;;4977126;28;19930;-87
2021/09/26 03:32:34;;;;;;;;;;;;;;;;;;4977010;28;20049;-86
2021/09/26 03:34:59;;;;;;;;;;;;;;;;;;4995007;28;19918;-86
2021/09/26 03:37:26;;;;;;;;;;;;;;;;;;4994697;28;19921;-86
2021/09/26 03:39:51;;;;;;;;;;;;;;;;;;4994653;28;19925;-86
2021/09/26 03:42:17;;;;;;;;;;;;;;;;;;4977251;28;19918;-86
2021/09/26 03:44:43;;;;;;;;;;;;;;;;;;4994595;28;20068;-86
2021/09/26 03:47:10;;;;;;;;;;;;;;;;;;4977045;28;19922;-86
2021/09/26 03:49:36;;;;;;;;;;;;;;;;;;4994628;28;19918;-85
2021/09/26 03:52:02;;;;;;;;;;;;;;;;;;4995144;28;19918;-86
2021/09/26 03:54:27;;;;;;;;;;;;;;;;;;4994691;28;19925;-86
2021/09/26 03:56:54;;;;;;;;;;;;;;;;;;4994526;28;20298;-86
2021/09/26 03:59:19;;;;;;;;;;;;;;;;;;4994842;28;19921;-87
2021/09/26 04:01:45;;;;;;;;;;;;;;;;;;4979932;28;20441;-86
2021/09/26 04:04:11;;;;;;;;;;;;;;;;;;4979572;28;19917;-86
2021/09/26 04:06:37;;;;;;;;;;;;;;;;;;4978387;28;19997;-86
2021/09/26 04:09:05;;;;;;;;;;;;;;;;;;4995497;28;19925;-84
2021/09/26 04:11:32;;;;;;;;;;;;;;;;;;4994721;28;19971;-87
2021/09/26 04:13:57;;;;;;;;;;;;;;;;;;4994785;28;19918;-86
2021/09/26 04:16:23;;;;;;;;;;;;;;;;;;4977672;28;19918;-85
2021/09/26 04:18:49;;;;;;;;;;;;;;;;;;4994729;28;20298;-84
2021/09/26 04:21:25;;;;;;;;;;;;;;;;;;4996032;28;20297;-85
2021/09/26 04:23:51;;;;;;;;;;;;;;;;;;4976846;28;19993;-84
2021/09/26 04:26:18;;;;;;;;;;;;;;;;;;4994208;28;19961;-83
2021/09/26 04:28:44;;;;;;;;;;;;;;;;;;4994107;28;19964;-84
2021/09/26 04:31:10;;;;;;;;;;;;;;;;;;4976710;28;19922;-86
2021/09/26 04:33:36;;;;;;;;;;;;;;;;;;4993866;28;19922;-84
2021/09/26 04:36:02;;;;;;;;;;;;;;;;;;4977354;28;20370;-82
2021/09/26 04:38:27;;;;;;;;;;;;;;;;;;4998238;28;19918;-82
2021/09/26 04:40:54;;;;;;;;;;;;;;;;;;4980221;28;19980;-82
2021/09/26 04:43:21;;;;;;;;;;;;;;;;;;4997652;28;19925;-83
2021/09/26 04:45:46;;;;;;;;;;;;;;;;;;4997856;28;19972;-87
2021/09/26 04:48:12;;;;;;;;;;;;;;;;;;4997717;28;19917;-82
2021/09/26 04:50:37;;;;;;;;;;;;;;;;;;4997623;28;19918;-83
2021/09/26 04:53:04;;;;;;;;;;;;;;;;;;4997870;28;19918;-83
2021/09/26 04:55:30;;;;;;;;;;;;;;;;;;4998122;28;19917;-83
2021/09/26 04:57:57;;;;;;;;;;;;;;;;;;4997781;28;20384;-81
2021/09/26 05:00:24;;;;;;;;;;;;;;;;;;4997615;28;19917;-82
2021/09/26 05:02:49;;;;;;;;;;;;;;;;;;4997383;28;19918;-81
2021/09/26 05:05:15;;;;;;;;;;;;;;;;;;4997223;28;20293;-82
2021/09/26 05:07:41;;;;;;;;;;;;;;;;;;4997652;28;19918;-82
2021/09/26 05:10:07;;;;;;;;;;;;;;;;;;4998175;28;19977;-83
2021/09/26 05:12:33;;;;;;;;;;;;;;;;;;4997628;28;19917;-82
2021/09/26 05:15:03;;;;;;;;;;;;;;;;;;4997542;28;19921;-82
2021/09/26 05:17:30;;;;;;;;;;;;;;;;;;4998108;28;19941;-82
2021/09/26 05:19:55;;;;;;;;;;;;;;;;;;4997760;28;20334;-82
2021/09/26 05:22:21;;;;;;;;;;;;;;;;;;4997787;28;19918;-81
2021/09/26 05:24:47;;;;;;;;;;;;;;;;;;4998190;28;19925;-81
2021/09/26 05:27:13;;;;;;;;;;;;;;;;;;4997881;28;19918;-82
2021/09/26 05:29:40;;;;;;;;;;;;;;;;;;4996711;28;19921;-81
2021/09/26 05:32:06;;;;;;;;;;;;;;;;;;4996666;28;19918;-82
2021/09/26 05:34:32;;;;;;;;;;;;;;;;;;4996543;28;19928;-82
2021/09/26 05:36:57;;;;;;;;;;;;;;;;;;4996687;28;20000;-80
2021/09/26 05:39:25;;;;;;;;;;;;;;;;;;4996685;28;19918;-82
2021/09/26 05:41:52;;;;;;;;;;;;;;;;;;4979575;28;19918;-87
2021/09/26 05:44:18;;;;;;;;;;;;;;;;;;4996621;28;19972;-82
2021/09/26 05:46:44;;;;;;;;;;;;;;;;;;4996855;28;20336;-80
2021/09/26 05:49:10;;;;;;;;;;;;;;;;;;4978105;28;19917;-85
2021/09/26 05:51:37;;;;;;;;;;;;;;;;;;4996066;28;19917;-89
2021/09/26 05:54:05;;;;;;;;;;;;;;;;;;4978158;28;20689;-91
2021/09/26 05:56:37;;;;;;;;;;;;;;;;;;4994604;28;20298;-86
2021/09/26 05:59:07;;;;;;;;;;;;;;;;;;4995572;28;19914;-85
2021/09/26 06:01:35;;;;;;;;;;;;;;;;;;4995227;28;19926;-86
2021/09/26 06:04:24;;;;;;;;;;;;;;;;;;4978467;28;19961;-86
2021/09/26 06:06:56;;;;;;;;;;;;;;;;;;4996523;28;20016;-85
2021/09/26 06:09:24;;;;;;;;;;;;;;;;;;4994496;28;19944;-86
2021/09/26 06:11:59;;;;;;;;;;;;;;;;;;4978753;28;19918;-86
2021/09/26 06:14:36;;;;;;;;;;;;;;;;;;4975507;28;19925;-86
2021/09/26 06:17:06;;;;;;;;;;;;;;;;;;4978110;28;19918;-87
2021/09/26 06:19:35;;;;;;;;;;;;;;;;;;4966978;28;19929;-88
2021/09/26 06:22:01;;;;;;;;;;;;;;;;;;4956378;28;19928;-87
2021/09/26 06:24:28;;;;;;;;;;;;;;;;;;4974670;28;19922;-86
2021/09/26 06:26:55;;;;;;;;;;;;;;;;;;4974475;28;20382;-86
2021/09/26 06:29:21;;;;;;;;;;;;;;;;;;4975101;28;20356;-85
2021/09/26 06:31:48;;;;;;;;;;;;;;;;;;4976190;28;19918;-84
2021/09/26 06:34:16;;;;;;;;;;;;;;;;;;4994243;28;19992;-90
2021/09/26 06:36:42;;;;;;;;;;;;;;;;;;4994710;28;20392;-92
2021/09/26 06:39:08;;;;;;;;;;;;;;;;;;4976165;28;19918;-84
2021/09/26 06:41:35;;;;;;;;;;;;;;;;;;4993177;28;20378;-86
2021/09/26 06:44:06;;;;;;;;;;;;;;;;;;4994379;28;19918;-83
2021/09/26 06:46:32;;;;;;;;;;;;;;;;;;4995107;28;20012;-89
2021/09/26 06:48:59;;;;;;;;;;;;;;;;;;4996583;28;19972;-83
2021/09/26 06:51:25;;;;;;;;;;;;;;;;;;4996395;28;19918;-90
2021/09/26 06:53:54;;;;;;;;;;;;;;;;;;4996104;28;19918;-83
2021/09/26 06:56:20;;;;;;;;;;;;;;;;;;4942223;28;19928;-91
2021/09/26 06:58:53;;;;;;;;;;;;;;;;;;4959054;28;19918;-91
2021/09/26 07:01:24;;;;;;;;;;;;;;;;;;4948468;28;20425;-85
2021/09/26 07:03:49;;;;;;;;;;;;;;;;;;4984623;28;20403;-86
2021/09/26 07:06:15;;;;;;;;;;;;;;;;;;4992631;28;19922;-85
2021/09/26 07:08:41;;;;;;;;;;;;;;;;;;4959679;28;19918;-88
2021/09/26 07:11:08;;;;;;;;;;;;;;;;;;4974596;28;20371;-89
2021/09/26 07:13:34;;;;;;;;;;;;;;;;;;4974732;28;19949;-89
2021/09/26 07:16:00;;;;;;;;;;;;;;;;;;4993202;28;19928;-89
2021/09/26 07:18:32;;;;;;;;;;;;;;;;;;4992522;28;19941;-86
2021/09/26 07:20:59;;;;;;;;;;;;;;;;;;4974282;28;19921;-84
2021/09/26 07:23:25;;;;;;;;;;;;;;;;;;4992522;28;20334;-83
2021/09/26 07:25:50;;;;;;;;;;;;;;;;;;4975139;28;19968;-86
2021/09/26 07:28:16;;;;;;;;;;;;;;;;;;4992144;28;19918;-84
2021/09/26 07:30:42;;;;;;;;;;;;;;;;;;4992337;28;19945;-84
2021/09/26 07:33:09;;;;;;;;;;;;;;;;;;4992356;28;19970;-84
2021/09/26 07:35:34;;;;;;;;;;;;;;;;;;4991284;28;20326;-86
2021/09/26 07:38:00;;;;;;;;;;;;;;;;;;4992800;28;19922;-85
2021/09/26 07:40:25;;;;;;;;;;;;;;;;;;4991331;28;19969;-85
2021/09/26 07:42:51;;;;;;;;;;;;;;;;;;4994064;28;19972;-85
2021/09/26 07:45:17;;;;;;;;;;;;;;;;;;4994283;28;20286;-84
2021/09/26 07:47:42;;;;;;;;;;;;;;;;;;4993180;28;19965;-85
2021/09/26 07:50:09;;;;;;;;;;;;;;;;;;4976686;28;19960;-86
2021/09/26 07:52:36;;;;;;;;;;;;;;;;;;4994092;28;19961;-86
2021/09/26 07:55:01;;;;;;;;;;;;;;;;;;4994031;28;19918;-87
2021/09/26 07:57:27;;;;;;;;;;;;;;;;;;4976196;28;19968;-85
2021/09/26 07:59:53;;;;;;;;;;;;;;;;;;4995234;28;19917;-86
2021/09/26 08:02:18;;;;;;;;;;;;;;;;;;4999932;28;19932;-83
2021/09/26 08:04:44;;;;;;;;;;;;;;;;;;4996148;28;19922;-82
2021/09/26 08:07:10;;;;;;;;;;;;;;;;;;4981621;28;19918;-81
2021/09/26 08:09:43;;;;;;;;;;;;;;;;;;5002648;28;19922;-85
2021/09/26 08:12:09;;;;;;;;;;;;;;;;;;4999106;28;19932;-85
2021/09/26 08:14:34;;;;;;;;;;;;;;;;;;4999868;28;19922;-85
2021/09/26 08:17:01;;;;;;;;;;;;;;;;;;4998506;28;19918;-82
2021/09/26 08:19:27;;;;;;;;;;;;;;;;;;4998389;28;19918;-79
2021/09/26 08:21:53;;;;;;;;;;;;;;;;;;4998531;28;19914;-81
2021/09/26 08:24:21;;;;;;;;;;;;;;;;;;4997725;28;19943;-82
2021/09/26 08:26:46;;;;;;;;;;;;;;;;;;4996000;28;19917;-85
2021/09/26 08:29:12;;;;;;;;;;;;;;;;;;4976568;28;19922;-87
2021/09/26 08:31:37;;;;;;;;;;;;;;;;;;4996189;28;19918;-86
2021/09/26 08:34:03;;;;;;;;;;;;;;;;;;4995936;28;20304;-86
2021/09/26 08:36:29;;;;;;;;;;;;;;;;;;4997229;28;19921;-87
2021/09/26 08:38:55;;;;;;;;;;;;;;;;;;4979636;28;19917;-86
2021/09/26 08:41:21;;;;;;;;;;;;;;;;;;4997363;28;19995;-86
2021/09/26 08:43:47;;;;;;;;;;;;;;;;;;4998192;28;19922;-87
2021/09/26 08:46:15;;;;;;;;;;;;;;;;;;4979849;28;19921;-85
2021/09/26 08:48:42;;;;;;;;;;;;;;;;;;4997082;28;20361;-88
2021/09/26 08:51:08;;;;;;;;;;;;;;;;;;4996725;28;19918;-87
2021/09/26 08:53:33;;;;;;;;;;;;;;;;;;4979410;28;20259;-86
2021/09/26 08:55:59;;;;;;;;;;;;;;;;;;4979423;28;19914;-87
2021/09/26 08:58:24;;;;;;;;;;;;;;;;;;4993473;28;20405;-88
2021/09/26 09:00:50;;;;;;;;;;;;;;;;;;4988862;28;19922;-88
2021/09/26 09:03:17;;;;;;;;;;;;;;;;;;4996641;28;19924;-89
2021/09/26 09:05:50;;;;;;;;;;;;;;;;;;4976318;28;19922;-87
2021/09/26 09:08:17;;;;;;;;;;;;;;;;;;4985036;28;20394;-87
2021/09/26 09:10:45;;;;;;;;;;;;;;;;;;4985239;28;19925;-88
2021/09/26 09:13:12;;;;;;;;;;;;;;;;;;4996156;28;19918;-88
2021/09/26 09:15:49;;;;;;;;;;;;;;;;;;4979136;28;20281;-83
2021/09/26 09:18:15;;;;;;;;;;;;;;;;;;4994722;28;20071;-81
2021/09/26 09:20:40;;;;;;;;;;;;;;;;;;4996217;28;20358;-83
2021/09/26 09:23:06;;;;;;;;;;;;;;;;;;4994087;28;20017;-83
2021/09/26 09:25:36;;;;;;;;;;;;;;;;;;4995623;28;19922;-85
2021/09/26 09:28:04;;;;;;;;;;;;;;;;;;4994876;28;19925;-83
2021/09/26 09:30:31;;;;;;;;;;;;;;;;;;4995791;28;19926;-84
2021/09/26 09:32:57;;;;;;;;;;;;;;;;;;4996049;28;19929;-84
2021/09/26 09:35:23;;;;;;;;;;;;;;;;;;4978911;28;19918;-84
2021/09/26 09:37:48;;;;;;;;;;;;;;;;;;4995951;28;19928;-84
2021/09/26 09:40:16;;;;;;;;;;;;;;;;;;4996030;28;20004;-84
2021/09/26 09:42:52;;;;;;;;;;;;;;;;;;4996321;28;19914;-85
2021/09/26 09:45:20;;;;;;;;;;;;;;;;;;4996145;28;19918;-85
2021/09/26 09:48:18;;;;;;;;;;;;;;;;;;4996193;28;20376;-84
2021/09/26 09:51:04;;;;;;;;;;;;;;;;;;4952070;28;20289;-86
2021/09/26 09:53:35;;;;;;;;;;;;;;;;;;4995804;28;19928;-86
2021/09/26 09:56:07;;;;;;;;;;;;;;;;;;4995750;28;20393;-86
2021/09/26 09:58:44;;;;;;;;;;;;;;;;;;4995690;28;19917;-86
2021/09/26 10:01:11;;;;;;;;;;;;;;;;;;4996019;28;19961;-85
2021/09/26 10:03:41;;;;;;;;;;;;;;;;;;4978128;28;19925;-86
2021/09/26 10:06:25;;;;;;;;;;;;;;;;;;4995545;28;19913;-86
2021/09/26 10:08:51;;;;;;;;;;;;;;;;;;4995475;28;20013;-87
2021/09/26 10:11:17;;;;;;;;;;;;;;;;;;4995328;28;19918;-86
2021/09/26 10:13:43;;;;;;;;;;;;;;;;;;4995327;28;19928;-87
2021/09/26 10:16:10;;;;;;;;;;;;;;;;;;4995416;28;19925;-85
2021/09/26 10:18:36;;;;;;;;;;;;;;;;;;4995385;28;20289;-84
2021/09/26 10:21:05;;;;;;;;;;;;;;;;;;4995170;28;19918;-85
2021/09/26 10:23:31;;;;;;;;;;;;;;;;;;4995114;28;19971;-84
2021/09/26 10:25:57;;;;;;;;;;;;;;;;;;4977890;28;19918;-81
2021/09/26 10:28:27;;;;;;;;;;;;;;;;;;4994928;28;19922;-80
2021/09/26 10:30:59;;;;;;;;;;;;;;;;;;4995012;28;20736;-84
2021/09/26 10:33:26;;;;;;;;;;;;;;;;;;4994561;28;20297;-82
2021/09/26 10:35:52;;;;;;;;;;;;;;;;;;4994853;28;20013;-82
2021/09/26 10:38:18;;;;;;;;;;;;;;;;;;4995055;28;20271;-91
2021/09/26 10:40:44;;;;;;;;;;;;;;;;;;4977716;28;19922;-84
2021/09/26 10:43:17;;;;;;;;;;;;;;;;;;4995413;28;19964;-83
2021/09/26 10:45:43;;;;;;;;;;;;;;;;;;5037405;23;19926;-84
2021/09/26 10:48:08;;;;;;;;;;;;;;;;;;4975335;28;19925;-86
2021/09/26 10:50:38;;;;;;;;;;;;;;;;;;4974202;28;19973;-84
2021/09/26 10:53:10;;;;;;;;;;;;;;;;;;4975458;28;19918;-82
2021/09/26 10:55:39;;;;;;;;;;;;;;;;;;4975100;28;19922;-85
2021/09/26 10:58:06;;;;;;;;;;;;;;;;;;4975331;28;19922;-84
2021/09/26 11:00:33;;;;;;;;;;;;;;;;;;4975200;28;19926;-85
2021/09/26 11:03:06;;;;;;;;;;;;;;;;;;4975292;28;20291;-80
2021/09/26 11:05:33;;;;;;;;;;;;;;;;;;4975271;28;19922;-91
2021/09/26 11:07:59;;;;;;;;;;;;;;;;;;4958432;28;20021;-87
2021/09/26 11:10:38;;;;;;;;;;;;;;;;;;4975073;28;20275;-84
2021/09/26 11:13:11;;;;;;;;;;;;;;;;;;4974839;28;20358;-84
2021/09/26 11:15:57;;;;;;;;;;;;;;;;;;4975341;28;20358;-84
2021/09/26 11:18:41;;;;;;;;;;;;;;;;;;4974870;28;20338;-82
2021/09/26 11:21:07;;;;;;;;;;;;;;;;;;4974856;28;19922;-81
2021/09/26 11:23:36;;;;;;;;;;;;;;;;;;4974078;28;20133;-84
2021/09/26 11:26:06;;;;;;;;;;;;;;;;;;4974666;28;19922;-81
2021/09/26 11:28:33;;;;;;;;;;;;;;;;;;4974718;28;19919;-82
2021/09/26 11:30:59;;;;;;;;;;;;;;;;;;4974294;28;20290;-81
2021/09/26 11:33:25;;;;;;;;;;;;;;;;;;4991186;28;19918;-82
2021/09/26 11:35:50;;;;;;;;;;;;;;;;;;4993975;28;19918;-79
2021/09/26 11:38:23;;;;;;;;;;;;;;;;;;4993828;28;19918;-80
2021/09/26 11:40:53;;;;;;;;;;;;;;;;;;4974293;28;20028;-85
2021/09/26 11:43:22;;;;;;;;;;;;;;;;;;4974309;28;20049;-84
2021/09/26 11:45:47;;;;;;;;;;;;;;;;;;4973616;28;19965;-82
2021/09/26 11:48:13;;;;;;;;;;;;;;;;;;4974407;28;20669;-80
2021/09/26 11:50:40;;;;;;;;;;;;;;;;;;4974342;28;20038;-80
2021/09/26 11:53:06;;;;;;;;;;;;;;;;;;4988961;28;20259;-80
2021/09/26 11:55:33;;;;;;;;;;;;;;;;;;4993803;28;19933;-81
2021/09/26 11:58:00;;;;;;;;;;;;;;;;;;4993895;28;20386;-80
2021/09/26 12:00:26;;;;;;;;;;;;;;;;;;4993834;28;20372;-80
2021/09/26 12:02:52;;;;;;;;;;;;;;;;;;4993794;28;19918;-80
2021/09/26 12:05:37;;;;;;;;;;;;;;;;;;4993861;28;19918;-79
2021/09/26 12:08:03;;;;;;;;;;;;;;;;;;4976695;28;20382;-89
2021/09/26 12:10:29;;;;;;;;;;;;;;;;;;4976230;28;19944;-80
2021/09/26 12:12:54;;;;;;;;;;;;;;;;;;4974836;28;20375;-80
2021/09/26 12:15:20;;;;;;;;;;;;;;;;;;4974859;28;19926;-79
2021/09/26 12:17:53;;;;;;;;;;;;;;;;;;4974414;28;19929;-80
2021/09/26 12:20:21;;;;;;;;;;;;;;;;;;4957132;28;20279;-81
2021/09/26 12:22:47;;;;;;;;;;;;;;;;;;4973523;28;19961;-81
2021/09/26 12:25:24;;;;;;;;;;;;;;;;;;4973213;28;19929;-80
2021/09/26 12:27:56;;;;;;;;;;;;;;;;;;4974283;28;19969;-80
2021/09/26 12:30:23;;;;;;;;;;;;;;;;;;4956498;28;19926;-80
2021/09/26 12:32:57;;;;;;;;;;;;;;;;;;4956103;28;20454;-83
2021/09/26 12:35:27;;;;;;;;;;;;;;;;;;4974163;28;19941;-80
2021/09/26 12:37:56;;;;;;;;;;;;;;;;;;4973874;28;19928;-79
2021/09/26 12:40:26;;;;;;;;;;;;;;;;;;4973890;28;20372;-80
2021/09/26 12:42:52;;;;;;;;;;;;;;;;;;4956589;28;20394;-79
2021/09/26 12:45:39;;;;;;;;;;;;;;;;;;4973632;28;19925;-80
2021/09/26 12:48:08;;;;;;;;;;;;;;;;;;4956459;28;19969;-81
2021/09/26 12:50:37;;;;;;;;;;;;;;;;;;4973783;28;19918;-80
2021/09/26 12:53:03;;;;;;;;;;;;;;;;;;4956553;28;19918;-80
2021/09/26 12:55:31;;;;;;;;;;;;;;;;;;4973779;28;19926;-80
2021/09/26 12:57:57;;;;;;;;;;;;;;;;;;4975778;28;19961;-81
2021/09/26 13:00:23;;;;;;;;;;;;;;;;;;4977523;28;19918;-86
2021/09/26 13:02:51;;;;;;;;;;;;;;;;;;4977697;28;19925;-80
2021/09/26 13:05:43;;;;;;;;;;;;;;;;;;4976628;28;19964;-80
2021/09/26 13:08:09;;;;;;;;;;;;;;;;;;4956895;28;19922;-80
2021/09/26 13:10:36;;;;;;;;;;;;;;;;;;4977113;28;19922;-80
2021/09/26 13:13:12;;;;;;;;;;;;;;;;;;4976347;28;19925;-81
2021/09/26 13:15:41;;;;;;;;;;;;;;;;;;4977064;28;19922;-80
2021/09/26 13:18:16;;;;;;;;;;;;;;;;;;4976877;28;19925;-80
2021/09/26 13:20:42;;;;;;;;;;;;;;;;;;4976923;28;19925;-80
2021/09/26 13:23:23;;;;;;;;;;;;;;;;;;4975662;28;19918;-82
2021/09/26 13:25:50;;;;;;;;;;;;;;;;;;4977034;28;19925;-84
2021/09/26 13:28:19;;;;;;;;;;;;;;;;;;4976259;28;19922;-80
2021/09/26 13:30:45;;;;;;;;;;;;;;;;;;4976739;28;19945;-78
2021/09/26 13:33:31;;;;;;;;;;;;;;;;;;4976899;28;19922;-79
2021/09/26 13:36:07;;;;;;;;;;;;;;;;;;4976557;28;20409;-80
2021/09/26 13:38:33;;;;;;;;;;;;;;;;;;4976918;28;19919;-82
2021/09/26 13:41:01;;;;;;;;;;;;;;;;;;4976061;28;19993;-79
2021/09/26 13:43:29;;;;;;;;;;;;;;;;;;4976214;28;19926;-81
2021/09/26 13:45:55;;;;;;;;;;;;;;;;;;4976274;28;20314;-80
2021/09/26 13:48:21;;;;;;;;;;;;;;;;;;4975784;28;20016;-80
2021/09/26 13:50:48;;;;;;;;;;;;;;;;;;4976351;28;19922;-80
2021/09/26 13:53:15;;;;;;;;;;;;;;;;;;4976350;28;20290;-80
2021/09/26 13:55:41;;;;;;;;;;;;;;;;;;4975281;28;19926;-80
2021/09/26 13:58:06;;;;;;;;;;;;;;;;;;4975647;28;19922;-80
2021/09/26 14:00:31;;;;;;;;;;;;;;;;;;4975844;28;20386;-80
2021/09/26 14:02:58;;;;;;;;;;;;;;;;;;4975919;28;19918;-80
2021/09/26 14:05:24;;;;;;;;;;;;;;;;;;4976398;28;20390;-80
2021/09/26 14:07:50;;;;;;;;;;;;;;;;;;4975298;28;19922;-80
2021/09/26 14:10:17;;;;;;;;;;;;;;;;;;4974601;28;20430;-79
2021/09/26 14:12:42;;;;;;;;;;;;;;;;;;4975207;28;19922;-80
2021/09/26 14:15:09;;;;;;;;;;;;;;;;;;4975871;28;19988;-80
2021/09/26 14:17:35;;;;;;;;;;;;;;;;;;4974596;28;19976;-80
2021/09/26 14:20:02;;;;;;;;;;;;;;;;;;4975559;28;19925;-80
2021/09/26 14:22:28;;;;;;;;;;;;;;;;;;4975829;28;20016;-78
2021/09/26 14:24:53;;;;;;;;;;;;;;;;;;4958527;28;20045;-79
2021/09/26 14:27:19;;;;;;;;;;;;;;;;;;4975707;28;20369;-81
2021/09/26 14:29:45;;;;;;;;;;;;;;;;;;4976203;28;19921;-79
2021/09/26 14:32:10;;;;;;;;;;;;;;;;;;4958399;28;20291;-80
2021/09/26 14:34:36;;;;;;;;;;;;;;;;;;4977126;28;20298;-80
2021/09/26 14:37:03;;;;;;;;;;;;;;;;;;4976359;28;20013;-79
2021/09/26 14:39:29;;;;;;;;;;;;;;;;;;4974154;28;20016;-82
2021/09/26 14:41:55;;;;;;;;;;;;;;;;;;4975646;28;20012;-79
2021/09/26 14:44:21;;;;;;;;;;;;;;;;;;4974987;28;19930;-79
2021/09/26 14:46:47;;;;;;;;;;;;;;;;;;4976077;28;19929;-78
2021/09/26 14:49:13;;;;;;;;;;;;;;;;;;4975203;28;20036;-79
2021/09/26 14:51:38;;;;;;;;;;;;;;;;;;4975807;28;19919;-82
2021/09/26 14:54:06;;;;;;;;;;;;;;;;;;4975005;28;19928;-80
2021/09/26 14:56:32;;;;;;;;;;;;;;;;;;4975555;28;19956;-79
2021/09/26 14:58:57;;;;;;;;;;;;;;;;;;4974803;28;19926;-78
2021/09/26 15:01:26;;;;;;;;;;;;;;;;;;4974720;28;19977;-78
2021/09/26 15:03:52;;;;;;;;;;;;;;;;;;4958207;28;19923;-78
2021/09/26 15:06:21;;;;;;;;;;;;;;;;;;4975284;28;19918;-78
2021/09/26 15:08:48;;;;;;;;;;;;;;;;;;4957600;28;19924;-78
2021/09/26 15:11:13;;;;;;;;;;;;;;;;;;4975911;28;19925;-79
2021/09/26 15:13:40;;;;;;;;;;;;;;;;;;4973710;28;19922;-79
2021/09/26 15:16:06;;;;;;;;;;;;;;;;;;4973685;28;19918;-79
2021/09/26 15:18:31;;;;;;;;;;;;;;;;;;4974184;28;20378;-80
2021/09/26 15:20:57;;;;;;;;;;;;;;;;;;4974484;28;19925;-78
2021/09/26 15:23:23;;;;;;;;;;;;;;;;;;4957419;28;19918;-78
2021/09/26 15:25:49;;;;;;;;;;;;;;;;;;4975268;28;19929;-79
2021/09/26 15:28:15;;;;;;;;;;;;;;;;;;4974892;28;20367;-79
2021/09/26 15:30:41;;;;;;;;;;;;;;;;;;4975650;28;19923;-78
2021/09/26 15:33:06;;;;;;;;;;;;;;;;;;4974622;28;19919;-78
2021/09/26 15:35:32;;;;;;;;;;;;;;;;;;4974588;28;19918;-79
2021/09/26 15:37:57;;;;;;;;;;;;;;;;;;4974611;28;19918;-85
2021/09/26 15:40:29;;;;;;;;;;;;;;;;;;4957760;28;19940;-85
2021/09/26 15:42:55;;;;;;;;;;;;;;;;;;4974954;28;19925;-85
2021/09/26 15:45:23;;;;;;;;;;;;;;;;;;4973109;28;19930;-85
2021/09/26 15:47:50;;;;;;;;;;;;;;;;;;4957135;28;19964;-85
2021/09/26 15:50:18;;;;;;;;;;;;;;;;;;4974073;28;19960;-84
2021/09/26 15:52:43;;;;;;;;;;;;;;;;;;4971100;28;20263;-83
2021/09/26 15:55:10;;;;;;;;;;;;;;;;;;4974057;28;19925;-85
2021/09/26 15:57:38;;;;;;;;;;;;;;;;;;4974421;28;19929;-84
2021/09/26 16:00:05;;;;;;;;;;;;;;;;;;4957246;28;19946;-84
2021/09/26 16:02:32;;;;;;;;;;;;;;;;;;4974531;28;20729;-85
2021/09/26 16:04:57;;;;;;;;;;;;;;;;;;4974846;28;19965;-85
2021/09/26 16:07:23;;;;;;;;;;;;;;;;;;4973655;28;19972;-84
2021/09/26 16:09:49;;;;;;;;;;;;;;;;;;4957838;28;20268;-85
2021/09/26 16:12:15;;;;;;;;;;;;;;;;;;4977586;28;19918;-83
2021/09/26 16:14:40;;;;;;;;;;;;;;;;;;4976780;28;20275;-81
2021/09/26 16:17:06;;;;;;;;;;;;;;;;;;4975109;28;19918;-83
2021/09/26 16:19:31;;;;;;;;;;;;;;;;;;4975064;28;19918;-80
2021/09/26 16:21:57;;;;;;;;;;;;;;;;;;4974660;28;19918;-85
2021/09/26 16:24:24;;;;;;;;;;;;;;;;;;4975598;28;20008;-83
2021/09/26 16:26:50;;;;;;;;;;;;;;;;;;4974800;28;19925;-85
2021/09/26 16:29:16;;;;;;;;;;;;;;;;;;4974883;28;19918;-84
2021/09/26 16:31:41;;;;;;;;;;;;;;;;;;4975402;28;19926;-85
2021/09/26 16:34:07;;;;;;;;;;;;;;;;;;4978658;28;19922;-83
2021/09/26 16:36:33;;;;;;;;;;;;;;;;;;4978188;28;19926;-84
2021/09/26 16:38:59;;;;;;;;;;;;;;;;;;4977900;28;20022;-83
2021/09/26 16:41:26;;;;;;;;;;;;;;;;;;4977851;28;19965;-83
2021/09/26 16:43:52;;;;;;;;;;;;;;;;;;4977864;28;19922;-82
2021/09/26 16:46:18;;;;;;;;;;;;;;;;;;4956932;29;20397;-83
2021/09/26 16:48:44;;;;;;;;;;;;;;;;;;4958566;28;19965;-84
2021/09/26 16:51:11;;;;;;;;;;;;;;;;;;4958602;28;19926;-83